Time;durP1;ratioP1;P1;durP2;ratioP2;P2;SDS_P1;SDS_P2;PMS_P1;PMS_P2;Temp;Humidity;BMP_temperature;BMP_pressure;BME280_temperature;BME280_humidity;BME280_pressure;Samples;Min_cycle;Max_cycle;Signal;HPM_P1;HPM_P2
2022/05/05 00:01:45;;;;;;;3.80;3.50;;;;;;;;;;5065526;28;20666;-77
2022/05/05 00:04:14;;;;;;;5.33;4.90;;;;;;;;;;5030597;28;20636;-76
2022/05/05 00:06:42;;;;;;;4.40;4.00;;;;;;;;;;5044604;28;20223;-76
2022/05/05 00:09:10;;;;;;;4.17;3.77;;;;;;;;;;5033648;28;20245;-76
2022/05/05 00:14:28;;;;;;;5.43;4.73;;;;;;;;;;5024346;28;20257;-75
2022/05/05 00:16:58;;;;;;;5.53;4.27;;;;;;;;;;5026756;28;20251;-75
2022/05/05 00:19:27;;;;;;;7.83;4.70;;;;;;;;;;5033735;28;20635;-73
2022/05/05 00:21:55;;;;;;;5.07;4.67;;;;;;;;;;5019586;28;20227;-73
2022/05/05 00:24:24;;;;;;;5.23;4.10;;;;;;;;;;5026392;28;20226;-73
2022/05/05 00:26:52;;;;;;;5.77;4.40;;;;;;;;;;5027864;28;20315;-73
2022/05/05 00:29:20;;;;;;;5.13;4.47;;;;;;;;;;5027174;28;20238;-73
2022/05/05 00:31:48;;;;;;;6.33;4.80;;;;;;;;;;5023035;28;20258;-73
2022/05/05 00:34:18;;;;;;;5.87;4.53;;;;;;;;;;5030460;28;20229;-73
2022/05/05 00:36:46;;;;;;;5.17;4.70;;;;;;;;;;5031903;28;20254;-73
2022/05/05 00:39:14;;;;;;;5.67;5.00;;;;;;;;;;5035982;28;20278;-73
2022/05/05 00:41:43;;;;;;;5.17;4.57;;;;;;;;;;5027028;28;20236;-73
2022/05/05 00:44:12;;;;;;;5.63;4.93;;;;;;;;;;5024609;28;20707;-75
2022/05/05 00:46:40;;;;;;;5.63;5.13;;;;;;;;;;5030420;28;20252;-73
2022/05/05 00:49:08;;;;;;;6.87;6.17;;;;;;;;;;5027584;28;20283;-73
2022/05/05 00:51:37;;;;;;;6.27;5.67;;;;;;;;;;5023989;28;20710;-72
2022/05/05 00:54:05;;;;;;;7.40;5.53;;;;;;;;;;5035468;28;20282;-74
2022/05/05 00:56:34;;;;;;;7.00;6.23;;;;;;;;;;5035843;28;20254;-73
2022/05/05 00:59:02;;;;;;;8.03;6.17;;;;;;;;;;5022580;28;20339;-73
2022/05/05 01:01:32;;;;;;;7.13;6.43;;;;;;;;;;5033994;28;20204;-73
2022/05/05 01:04:01;;;;;;;7.87;6.33;;;;;;;;;;5060626;28;20248;-73
2022/05/05 01:06:30;;;;;;;12.07;7.53;;;;;;;;;;5076265;28;20314;-73
2022/05/05 01:09:06;;;;;;;9.77;8.03;;;;;;;;;;5072909;28;20204;-73
2022/05/05 01:11:34;;;;;;;8.03;7.23;;;;;;;;;;5067724;28;20236;-73
2022/05/05 01:14:02;;;;;;;10.97;8.03;;;;;;;;;;5067742;28;20736;-73
2022/05/05 01:16:31;;;;;;;9.00;7.90;;;;;;;;;;5068090;28;20258;-73
2022/05/05 01:18:59;;;;;;;10.00;7.30;;;;;;;;;;5067490;28;20222;-73
2022/05/05 01:21:29;;;;;;;8.97;7.40;;;;;;;;;;5063321;28;20237;-73
2022/05/05 01:23:57;;;;;;;8.63;7.60;;;;;;;;;;5071797;28;20229;-73
2022/05/05 01:29:10;;;;;;;10.03;8.07;;;;;;;;;;5029211;28;20742;-72
2022/05/05 01:31:39;;;;;;;8.70;7.80;;;;;;;;;;5070381;28;20231;-73
2022/05/05 01:34:07;;;;;;;9.10;7.73;;;;;;;;;;5061208;28;20199;-73
2022/05/05 01:36:37;;;;;;;8.37;7.07;;;;;;;;;;5071596;28;20258;-73
2022/05/05 01:39:05;;;;;;;9.97;8.37;;;;;;;;;;5065452;28;20219;-74
2022/05/05 01:41:36;;;;;;;10.07;7.67;;;;;;;;;;5069925;28;20310;-73
2022/05/05 01:44:04;;;;;;;11.23;8.33;;;;;;;;;;5070277;28;20229;-73
2022/05/05 01:46:32;;;;;;;10.37;8.27;;;;;;;;;;5073952;28;20278;-74
2022/05/05 01:49:00;;;;;;;14.37;9.40;;;;;;;;;;5063478;28;20229;-74
2022/05/05 01:51:28;;;;;;;12.07;9.07;;;;;;;;;;5076683;28;20631;-73
2022/05/05 01:53:57;;;;;;;9.13;8.10;;;;;;;;;;5073668;28;20626;-74
2022/05/05 01:56:25;;;;;;;10.67;8.27;;;;;;;;;;5068027;28;20222;-73
2022/05/05 01:58:53;;;;;;;11.30;9.53;;;;;;;;;;5063526;28;20282;-74
2022/05/05 02:01:21;;;;;;;10.77;8.60;;;;;;;;;;5062356;28;20286;-73
2022/05/05 02:03:50;;;;;;;9.60;8.00;;;;;;;;;;5065332;28;20317;-74
2022/05/05 02:06:18;;;;;;;10.30;8.73;;;;;;;;;;5064333;28;20250;-73
2022/05/05 02:08:46;;;;;;;10.67;9.13;;;;;;;;;;5062084;28;20234;-73
2022/05/05 02:11:15;;;;;;;11.40;9.60;;;;;;;;;;5062239;28;20266;-72
2022/05/05 02:13:43;;;;;;;13.60;9.10;;;;;;;;;;5073894;28;20226;-72
2022/05/05 02:16:11;;;;;;;10.97;9.13;;;;;;;;;;5066908;28;20261;-72
2022/05/05 02:18:39;;;;;;;11.57;9.83;;;;;;;;;;5070493;28;20222;-73
2022/05/05 02:21:07;;;;;;;13.50;9.60;;;;;;;;;;5063840;28;20294;-72
2022/05/05 02:23:36;;;;;;;12.40;10.10;;;;;;;;;;5067169;28;20238;-72
2022/05/05 02:26:05;;;;;;;11.23;9.07;;;;;;;;;;5065656;28;20275;-73
2022/05/05 02:28:35;;;;;;;11.97;9.30;;;;;;;;;;5060600;28;20230;-73
2022/05/05 02:31:03;;;;;;;12.23;9.43;;;;;;;;;;5070976;28;20636;-74
2022/05/05 02:33:31;;;;;;;12.33;9.97;;;;;;;;;;5062058;28;20203;-72
2022/05/05 02:38:47;;;;;;;11.03;9.00;;;;;;;;;;5045625;28;20301;-75
2022/05/05 02:41:15;;;;;;;10.33;8.93;;;;;;;;;;5060349;28;20207;-72
2022/05/05 02:43:45;;;;;;;13.67;9.30;;;;;;;;;;5065798;28;20199;-72
2022/05/05 02:46:13;;;;;;;14.00;9.23;;;;;;;;;;5072725;28;20218;-73
2022/05/05 02:48:41;;;;;;;12.57;9.63;;;;;;;;;;5067652;28;20202;-72
2022/05/05 02:51:09;;;;;;;13.00;9.27;;;;;;;;;;5063278;28;20203;-72
2022/05/05 02:56:22;;;;;;;10.03;8.47;;;;;;;;;;5069454;28;20246;-72
2022/05/05 02:58:53;;;;;;;11.40;9.00;;;;;;;;;;5068909;28;20301;-72
2022/05/05 03:01:21;;;;;;;10.47;8.73;;;;;;;;;;5065321;28;20730;-72
2022/05/05 03:03:49;;;;;;;13.03;9.47;;;;;;;;;;5066496;28;20590;-72
2022/05/05 03:06:17;;;;;;;11.83;9.30;;;;;;;;;;5060170;28;20655;-72
2022/05/05 03:08:45;;;;;;;12.70;9.57;;;;;;;;;;5061647;28;20266;-72
2022/05/05 03:11:13;;;;;;;10.57;9.27;;;;;;;;;;5072243;28;20231;-71
2022/05/05 03:13:41;;;;;;;11.23;9.00;;;;;;;;;;5068530;28;20622;-72
2022/05/05 03:16:11;;;;;;;11.10;8.13;;;;;;;;;;5075444;28;20226;-72
2022/05/05 03:18:40;;;;;;;10.33;8.03;;;;;;;;;;5065414;28;20198;-71
2022/05/05 03:21:08;;;;;;;10.47;8.23;;;;;;;;;;5064774;28;20618;-72
2022/05/05 03:23:36;;;;;;;9.67;8.67;;;;;;;;;;5065956;28;20230;-71
2022/05/05 03:26:04;;;;;;;14.57;9.30;;;;;;;;;;5067610;28;20291;-72
2022/05/05 03:28:32;;;;;;;13.37;9.80;;;;;;;;;;5072925;28;20725;-72
2022/05/05 03:31:00;;;;;;;11.63;10.07;;;;;;;;;;5067269;28;20205;-72
2022/05/05 03:33:30;;;;;;;14.03;9.40;;;;;;;;;;5062042;28;20747;-73
2022/05/05 03:35:58;;;;;;;11.70;9.87;;;;;;;;;;5068736;28;20222;-72
2022/05/05 03:38:26;;;;;;;11.97;9.63;;;;;;;;;;5063265;28;20627;-73
2022/05/05 03:40:55;;;;;;;11.30;8.67;;;;;;;;;;5068897;28;20215;-71
2022/05/05 03:43:23;;;;;;;11.43;9.17;;;;;;;;;;5060329;28;20297;-71
2022/05/05 03:45:51;;;;;;;11.30;8.90;;;;;;;;;;5067402;28;20601;-70
2022/05/05 03:48:19;;;;;;;12.57;9.67;;;;;;;;;;5069220;28;20233;-71
2022/05/05 03:50:49;;;;;;;10.97;8.27;;;;;;;;;;5064955;28;20278;-71
2022/05/05 03:53:18;;;;;;;10.80;8.63;;;;;;;;;;5063604;28;20230;-71
2022/05/05 03:55:46;;;;;;;10.23;7.93;;;;;;;;;;5069258;28;20308;-72
2022/05/05 03:58:14;;;;;;;9.77;8.37;;;;;;;;;;5063895;28;20626;-73
2022/05/05 04:00:42;;;;;;;11.93;9.67;;;;;;;;;;5065292;28;20760;-71
2022/05/05 04:06:02;;;;;;;14.10;9.77;;;;;;;;;;5063507;28;20556;-72
2022/05/05 04:08:30;;;;;;;11.70;8.57;;;;;;;;;;5063566;28;20199;-71
2022/05/05 04:10:58;;;;;;;11.80;8.87;;;;;;;;;;5063912;28;20234;-71
2022/05/05 04:13:26;;;;;;;11.97;9.37;;;;;;;;;;5062662;28;20194;-72
2022/05/05 04:15:55;;;;;;;11.87;8.77;;;;;;;;;;5066420;28;20218;-73
2022/05/05 04:18:23;;;;;;;10.80;8.67;;;;;;;;;;5063763;28;20251;-72
2022/05/05 04:20:51;;;;;;;15.80;8.40;;;;;;;;;;5068742;28;20312;-73
2022/05/05 04:23:20;;;;;;;12.13;8.70;;;;;;;;;;5064952;28;20230;-71
2022/05/05 04:26:07;;;;;;;11.57;7.90;;;;;;;;;;5065481;28;20226;-71
2022/05/05 04:28:35;;;;;;;10.43;8.53;;;;;;;;;;5065731;28;20286;-72
2022/05/05 04:31:03;;;;;;;11.73;8.73;;;;;;;;;;5068157;28;20246;-72
2022/05/05 04:33:32;;;;;;;10.20;8.00;;;;;;;;;;5067900;28;20281;-73
2022/05/05 04:36:00;;;;;;;9.70;7.50;;;;;;;;;;5066671;28;20218;-73
2022/05/05 04:38:29;;;;;;;9.80;8.30;;;;;;;;;;5069611;28;20233;-72
2022/05/05 04:40:57;;;;;;;11.40;8.07;;;;;;;;;;5067622;28;20257;-71
2022/05/05 04:43:25;;;;;;;9.27;7.30;;;;;;;;;;5069981;28;20230;-73
2022/05/05 04:45:53;;;;;;;11.90;7.43;;;;;;;;;;5067490;28;20616;-72
2022/05/05 04:48:21;;;;;;;8.83;7.67;;;;;;;;;;5067870;28;20260;-71
2022/05/05 04:50:49;;;;;;;9.17;7.10;;;;;;;;;;5063971;28;20663;-72
2022/05/05 04:53:17;;;;;;;12.20;7.90;;;;;;;;;;5068834;28;20635;-72
2022/05/05 04:55:47;;;;;;;10.87;6.93;;;;;;;;;;5066657;28;20229;-71
2022/05/05 04:58:18;;;;;;;11.30;6.47;;;;;;;;;;5073318;28;20203;-72
2022/05/05 05:00:46;;;;;;;10.00;7.03;;;;;;;;;;5069299;28;20670;-72
2022/05/05 05:05:55;;;;;;;11.03;7.20;;;;;;;;;;5074379;28;20313;-73
2022/05/05 05:08:23;;;;;;;9.60;7.13;;;;;;;;;;5066071;28;20266;-73
2022/05/05 05:10:53;;;;;;;12.87;7.20;;;;;;;;;;5065118;28;20222;-72
2022/05/05 05:13:22;;;;;;;14.20;7.57;;;;;;;;;;5067207;28;20227;-72
2022/05/05 05:15:50;;;;;;;10.93;7.20;;;;;;;;;;5067930;28;20249;-72
2022/05/05 05:18:18;;;;;;;10.47;6.90;;;;;;;;;;5067814;28;20232;-71
2022/05/05 05:20:46;;;;;;;9.80;6.53;;;;;;;;;;5070016;28;20293;-71
2022/05/05 05:23:15;;;;;;;8.80;7.00;;;;;;;;;;5071828;28;20688;-72
2022/05/05 05:25:43;;;;;;;7.27;5.90;;;;;;;;;;5069511;28;20249;-72
2022/05/05 05:28:13;;;;;;;15.03;7.03;;;;;;;;;;5069149;28;20214;-70
2022/05/05 05:30:41;;;;;;;11.70;6.97;;;;;;;;;;5065583;28;20650;-72
2022/05/05 05:33:09;;;;;;;9.23;6.57;;;;;;;;;;5064263;28;20214;-73
2022/05/05 05:35:37;;;;;;;11.47;7.00;;;;;;;;;;5066539;28;20660;-73
2022/05/05 05:38:07;;;;;;;8.60;6.53;;;;;;;;;;5064753;28;20249;-73
2022/05/05 05:40:35;;;;;;;8.47;6.50;;;;;;;;;;5065037;28;20255;-72
2022/05/05 05:43:03;;;;;;;10.47;7.27;;;;;;;;;;5067090;28;20654;-73
2022/05/05 05:45:33;;;;;;;246.93;173.00;;;;;;;;;;5065144;28;20701;-74
2022/05/05 05:48:01;;;;;;;13.50;10.83;;;;;;;;;;5063197;28;20203;-72
2022/05/05 05:50:30;;;;;;;12.07;7.87;;;;;;;;;;5063257;28;20198;-71
2022/05/05 05:52:58;;;;;;;11.60;6.47;;;;;;;;;;5064529;28;20252;-70
2022/05/05 05:55:27;;;;;;;9.23;5.97;;;;;;;;;;5070928;28;20242;-70
2022/05/05 05:57:55;;;;;;;8.63;6.30;;;;;;;;;;5068235;28;20223;-71
2022/05/05 06:00:23;;;;;;;8.93;6.63;;;;;;;;;;5068714;28;20344;-70
2022/05/05 06:05:37;;;;;;;12.33;6.60;;;;;;;;;;5068642;28;20257;-69
2022/05/05 06:08:06;;;;;;;12.57;7.03;;;;;;;;;;5068985;28;20202;-69
2022/05/05 06:10:36;;;;;;;10.63;6.37;;;;;;;;;;5067513;28;20191;-71
2022/05/05 06:13:05;;;;;;;9.67;6.63;;;;;;;;;;5062121;28;20205;-71
2022/05/05 06:15:33;;;;;;;8.23;6.50;;;;;;;;;;5065212;28;20651;-71
2022/05/05 06:18:02;;;;;;;9.03;7.17;;;;;;;;;;5071913;28;20204;-70
2022/05/05 06:20:32;;;;;;;9.87;6.87;;;;;;;;;;5074659;28;20199;-70
2022/05/05 06:23:00;;;;;;;13.60;6.40;;;;;;;;;;5068513;28;20233;-71
2022/05/05 06:25:28;;;;;;;12.07;6.30;;;;;;;;;;5068107;28;20711;-71
2022/05/05 06:27:58;;;;;;;8.63;6.40;;;;;;;;;;5067494;28;20198;-71
2022/05/05 06:30:26;;;;;;;11.47;6.23;;;;;;;;;;5062452;28;20225;-72
2022/05/05 06:32:54;;;;;;;11.13;6.57;;;;;;;;;;5067686;28;20630;-70
2022/05/05 06:35:24;;;;;;;10.33;6.70;;;;;;;;;;5063575;28;20300;-70
2022/05/05 06:37:52;;;;;;;10.93;6.57;;;;;;;;;;5069710;28;20202;-71
2022/05/05 06:40:20;;;;;;;10.20;6.53;;;;;;;;;;5070311;28;20238;-70
2022/05/05 06:42:49;;;;;;;9.93;7.43;;;;;;;;;;5067609;28;20255;-77
2022/05/05 06:45:17;;;;;;;9.37;6.97;;;;;;;;;;5069266;28;20252;-77
2022/05/05 06:47:45;;;;;;;10.50;6.93;;;;;;;;;;5068354;28;20234;-80
2022/05/05 06:50:13;;;;;;;10.40;6.67;;;;;;;;;;5065061;28;20230;-79
2022/05/05 06:52:42;;;;;;;11.27;7.67;;;;;;;;;;5069970;28;20569;-79
2022/05/05 06:55:10;;;;;;;11.00;6.90;;;;;;;;;;5064489;28;20230;-86
2022/05/05 06:57:38;;;;;;;10.37;7.30;;;;;;;;;;5065439;28;20227;-78
2022/05/05 07:00:07;;;;;;;12.60;7.10;;;;;;;;;;5066104;28;20233;-79
2022/05/05 07:02:35;;;;;;;11.37;7.57;;;;;;;;;;5068840;28;20242;-72
2022/05/05 07:07:52;;;;;;;8.63;6.07;;;;;;;;;;5060914;28;20198;-74
2022/05/05 07:13:07;;;;;;;9.60;6.47;;;;;;;;;;5063486;28;20233;-76
2022/05/05 07:15:36;;;;;;;8.43;5.77;;;;;;;;;;5066818;28;20241;-73
2022/05/05 07:18:04;;;;;;;15.57;6.83;;;;;;;;;;5070580;28;20230;-74
2022/05/05 07:20:32;;;;;;;27.80;17.20;;;;;;;;;;5072534;28;20202;-74
2022/05/05 07:23:02;;;;;;;10.37;7.03;;;;;;;;;;5064464;28;20250;-75
2022/05/05 07:25:30;;;;;;;10.97;6.27;;;;;;;;;;5066055;28;20241;-74
2022/05/05 07:27:58;;;;;;;9.93;6.17;;;;;;;;;;5063082;28;20195;-75
2022/05/05 07:30:26;;;;;;;12.53;6.13;;;;;;;;;;5063230;28;20754;-74
2022/05/05 07:32:54;;;;;;;7.00;5.80;;;;;;;;;;5064267;28;20253;-74
2022/05/05 07:35:22;;;;;;;9.53;6.57;;;;;;;;;;5065105;28;20250;-73
2022/05/05 07:37:50;;;;;;;7.57;5.53;;;;;;;;;;5061642;28;20744;-74
2022/05/05 07:40:20;;;;;;;10.07;6.80;;;;;;;;;;5062964;28;20199;-73
2022/05/05 07:42:48;;;;;;;8.93;6.67;;;;;;;;;;5065674;28;20256;-74
2022/05/05 07:45:16;;;;;;;10.43;6.43;;;;;;;;;;5064877;28;20225;-73
2022/05/05 07:47:44;;;;;;;6.73;5.87;;;;;;;;;;5066852;28;20282;-73
2022/05/05 07:50:12;;;;;;;8.83;5.70;;;;;;;;;;5067449;28;20207;-74
2022/05/05 07:52:40;;;;;;;9.13;6.57;;;;;;;;;;5070492;28;20673;-74
2022/05/05 07:55:08;;;;;;;9.00;6.83;;;;;;;;;;5068367;28;20285;-74
2022/05/05 07:57:44;;;;;;;8.00;6.50;;;;;;;;;;5059620;28;20233;-73
2022/05/05 08:00:13;;;;;;;7.63;5.73;;;;;;;;;;5061353;28;20290;-73
2022/05/05 08:02:42;;;;;;;9.67;6.50;;;;;;;;;;5065445;28;20291;-73
2022/05/05 08:05:12;;;;;;;9.13;6.30;;;;;;;;;;5064843;28;20749;-74
2022/05/05 08:07:44;;;;;;;9.73;6.23;;;;;;;;;;5071968;28;20214;-73
2022/05/05 08:10:13;;;;;;;9.93;5.80;;;;;;;;;;5063518;28;20198;-74
2022/05/05 08:12:42;;;;;;;7.70;6.07;;;;;;;;;;5070699;28;20194;-73
2022/05/05 08:15:11;;;;;;;9.63;6.00;;;;;;;;;;5063993;28;20213;-73
2022/05/05 08:17:39;;;;;;;10.63;6.07;;;;;;;;;;5067876;28;20281;-74
2022/05/05 08:20:08;;;;;;;10.17;6.13;;;;;;;;;;5066049;28;20732;-73
2022/05/05 08:22:36;;;;;;;9.80;6.30;;;;;;;;;;5065770;28;20238;-74
2022/05/05 08:30:37;;;;;;;10.17;6.57;;;;;;;;;;5065103;28;20234;-74
2022/05/05 08:33:05;;;;;;;12.47;7.37;;;;;;;;;;5063290;28;20277;-74
2022/05/05 08:35:33;;;;;;;10.00;6.53;;;;;;;;;;5062477;28;20254;-72
2022/05/05 08:38:01;;;;;;;10.33;6.60;;;;;;;;;;5070532;28;20571;-73
2022/05/05 08:40:29;;;;;;;11.40;7.10;;;;;;;;;;5062071;28;20694;-72
2022/05/05 08:42:57;;;;;;;8.27;6.53;;;;;;;;;;5066543;28;20227;-73
2022/05/05 08:45:32;;;;;;;12.27;6.73;;;;;;;;;;5062069;28;20217;-72
2022/05/05 08:48:06;;;;;;;9.63;6.30;;;;;;;;;;5064461;28;20659;-71
2022/05/05 08:50:34;;;;;;;9.07;6.47;;;;;;;;;;5059794;28;20222;-74
2022/05/05 08:53:04;;;;;;;12.57;6.93;;;;;;;;;;5059744;28;20231;-73
2022/05/05 08:55:32;;;;;;;11.00;6.80;;;;;;;;;;5058983;28;20250;-73
2022/05/05 08:58:01;;;;;;;10.93;7.03;;;;;;;;;;5062538;28;20271;-74
2022/05/05 09:00:29;;;;;;;12.13;7.40;;;;;;;;;;5061344;28;20210;-74
2022/05/05 09:02:58;;;;;;;16.67;7.23;;;;;;;;;;5065648;28;20230;-74
2022/05/05 09:05:45;;;;;;;11.33;8.00;;;;;;;;;;5061604;28;20215;-74
2022/05/05 09:08:15;;;;;;;9.27;6.67;;;;;;;;;;5064056;28;20206;-74
2022/05/05 09:10:43;;;;;;;12.13;7.27;;;;;;;;;;5069758;28;20287;-74
2022/05/05 09:13:12;;;;;;;12.97;7.73;;;;;;;;;;5063502;28;20202;-74
2022/05/05 09:15:42;;;;;;;12.70;7.40;;;;;;;;;;5064640;28;20225;-74
2022/05/05 09:18:13;;;;;;;14.53;8.30;;;;;;;;;;5064191;28;20218;-74
2022/05/05 09:20:42;;;;;;;8.80;6.60;;;;;;;;;;5071208;28;20194;-74
2022/05/05 09:23:27;;;;;;;19.00;9.43;;;;;;;;;;5069643;28;20223;-75
2022/05/05 09:25:56;;;;;;;13.97;8.00;;;;;;;;;;5070629;28;20257;-74
2022/05/05 09:28:26;;;;;;;12.13;7.93;;;;;;;;;;5071608;28;20285;-74
2022/05/05 09:30:54;;;;;;;12.07;7.03;;;;;;;;;;5071304;28;20246;-74
2022/05/05 09:33:37;;;;;;;11.30;7.70;;;;;;;;;;5068588;28;20221;-75
2022/05/05 09:36:06;;;;;;;13.53;8.03;;;;;;;;;;5071587;28;20221;-74
2022/05/05 09:38:54;;;;;;;12.73;7.87;;;;;;;;;;5074283;28;20233;-74
2022/05/05 09:41:24;;;;;;;9.27;7.27;;;;;;;;;;5068595;28;20206;-75
2022/05/05 09:43:54;;;;;;;11.97;7.20;;;;;;;;;;5070572;28;20280;-75
2022/05/05 09:46:32;;;;;;;12.60;7.83;;;;;;;;;;5070169;28;20258;-75
2022/05/05 09:49:07;;;;;;;12.63;7.10;;;;;;;;;;5066739;28;20203;-75
2022/05/05 09:51:36;;;;;;;10.67;7.23;;;;;;;;;;5073451;28;20198;-74
2022/05/05 09:59:40;;;;;;;13.77;7.87;;;;;;;;;;5066825;28;20194;-74
2022/05/05 10:02:15;;;;;;;10.23;6.53;;;;;;;;;;5068499;28;20578;-74
2022/05/05 10:04:47;;;;;;;8.83;6.60;;;;;;;;;;5065605;28;20210;-74
2022/05/05 10:07:15;;;;;;;11.20;6.93;;;;;;;;;;5071663;28;20250;-74
2022/05/05 10:09:44;;;;;;;10.37;8.03;;;;;;;;;;5068990;28;20634;-75
2022/05/05 10:12:14;;;;;;;8.93;6.20;;;;;;;;;;5061900;28;20252;-74
2022/05/05 10:14:43;;;;;;;6.80;5.93;;;;;;;;;;5071652;28;20218;-75
2022/05/05 10:17:12;;;;;;;10.37;6.43;;;;;;;;;;5065773;28;20698;-74
2022/05/05 10:19:41;;;;;;;11.03;6.03;;;;;;;;;;5063326;28;20634;-75
2022/05/05 10:22:13;;;;;;;9.80;6.90;;;;;;;;;;5067921;28;20336;-75
2022/05/05 10:24:44;;;;;;;8.83;5.60;;;;;;;;;;5066761;28;20264;-75
2022/05/05 10:27:13;;;;;;;8.90;5.17;;;;;;;;;;5068212;28;20309;-75
2022/05/05 10:29:42;;;;;;;9.20;6.40;;;;;;;;;;5069152;28;20225;-75
2022/05/05 10:32:11;;;;;;;11.87;6.40;;;;;;;;;;5062283;28;20332;-75
2022/05/05 10:34:40;;;;;;;7.70;6.07;;;;;;;;;;5067709;28;20198;-76
2022/05/05 10:37:11;;;;;;;7.93;5.50;;;;;;;;;;5064328;28;20344;-74
2022/05/05 10:39:46;;;;;;;7.30;5.43;;;;;;;;;;5073003;28;20209;-75
2022/05/05 10:42:16;;;;;;;7.23;5.47;;;;;;;;;;5070120;28;20232;-75
2022/05/05 10:45:14;;;;;;;7.93;6.10;;;;;;;;;;5066315;28;20246;-74
2022/05/05 10:48:17;;;;;;;12.23;6.20;;;;;;;;;;4980686;28;20772;-75
2022/05/05 10:50:53;;;;;;;7.03;5.70;;;;;;;;;;5069073;28;20256;-74
2022/05/05 10:53:31;;;;;;;8.93;5.73;;;;;;;;;;5071638;28;20201;-75
2022/05/05 10:56:00;;;;;;;7.90;6.73;;;;;;;;;;5070568;28;20592;-74
2022/05/05 10:58:46;;;;;;;10.43;6.40;;;;;;;;;;5071342;28;20209;-74
2022/05/05 11:01:17;;;;;;;8.53;6.00;;;;;;;;;;5068195;28;20234;-74
2022/05/05 11:04:00;;;;;;;10.93;6.60;;;;;;;;;;5068990;28;20245;-74
2022/05/05 11:06:30;;;;;;;6.83;6.00;;;;;;;;;;5064984;28;20218;-74
2022/05/05 11:08:58;;;;;;;10.63;7.83;;;;;;;;;;5067440;28;20731;-74
2022/05/05 11:11:42;;;;;;;10.97;7.10;;;;;;;;;;5067696;28;20232;-74
2022/05/05 11:22:45;;;;;;;7.57;6.40;;;;;;;;;;5064950;28;20264;-73
2022/05/05 11:25:16;;;;;;;7.23;5.50;;;;;;;;;;5064356;28;20225;-73
2022/05/05 11:27:44;;;;;;;11.13;6.60;;;;;;;;;;5065125;28;20624;-74
2022/05/05 11:30:14;;;;;;;9.27;6.27;;;;;;;;;;5066136;28;20289;-75
2022/05/05 11:32:44;;;;;;;9.50;5.93;;;;;;;;;;5066748;28;20256;-72
2022/05/05 11:35:32;;;;;;;8.07;5.53;;;;;;;;;;5064391;28;20297;-73
2022/05/05 11:38:01;;;;;;;10.07;5.50;;;;;;;;;;5063652;28;20226;-73
2022/05/05 11:40:36;;;;;;;6.83;4.27;;;;;;;;;;5068626;28;20532;-72
2022/05/05 11:45:53;;;;;;;10.07;4.83;;;;;;;;;;5071245;28;20713;-72
2022/05/05 11:48:23;;;;;;;8.60;5.43;;;;;;;;;;5066603;28;20216;-74
2022/05/05 11:51:08;;;;;;;8.27;4.97;;;;;;;;;;5066971;28;20226;-72
2022/05/05 11:53:36;;;;;;;6.00;4.40;;;;;;;;;;5067530;28;20248;-74
2022/05/05 11:56:05;;;;;;;8.53;4.87;;;;;;;;;;5065973;28;20250;-74
2022/05/05 12:01:42;;;;;;;5.60;4.90;;;;;;;;;;5030819;28;20206;-70
2022/05/05 12:04:12;;;;;;;6.03;4.50;;;;;;;;;;5065091;28;20314;-74
2022/05/05 12:06:41;;;;;;;8.77;5.00;;;;;;;;;;5065338;28;20233;-71
2022/05/05 12:09:09;;;;;;;6.27;4.87;;;;;;;;;;5067977;28;20281;-74
2022/05/05 12:11:38;;;;;;;7.13;4.83;;;;;;;;;;5062288;28;20202;-75
2022/05/05 12:14:09;;;;;;;12.57;4.60;;;;;;;;;;5067862;28;20195;-74
2022/05/05 12:16:38;;;;;;;7.10;4.73;;;;;;;;;;5064420;28;20218;-76
2022/05/05 12:19:14;;;;;;;6.40;4.53;;;;;;;;;;5064503;28;20232;-73
2022/05/05 12:22:03;;;;;;;7.37;3.80;;;;;;;;;;5069001;28;20293;-74
2022/05/05 12:24:31;;;;;;;5.97;4.10;;;;;;;;;;5065248;28;20268;-74
2022/05/05 12:27:06;;;;;;;5.97;4.00;;;;;;;;;;5068867;28;21095;-73
2022/05/05 12:29:39;;;;;;;6.33;3.97;;;;;;;;;;5065291;28;20202;-73
2022/05/05 12:32:10;;;;;;;6.10;3.80;;;;;;;;;;5069509;28;20214;-76
2022/05/05 12:34:40;;;;;;;4.90;3.60;;;;;;;;;;5067418;28;20221;-75
2022/05/05 12:37:18;;;;;;;4.53;3.57;;;;;;;;;;5070504;28;20233;-75
2022/05/05 12:39:53;;;;;;;5.50;3.40;;;;;;;;;;5062527;28;20661;-75
2022/05/05 12:42:22;;;;;;;7.00;3.57;;;;;;;;;;5063108;28;20222;-76
2022/05/05 12:44:51;;;;;;;6.33;4.20;;;;;;;;;;5066420;28;20260;-78
2022/05/05 12:47:24;;;;;;;5.70;4.20;;;;;;;;;;5065056;28;20254;-76
2022/05/05 12:49:53;;;;;;;6.77;4.47;;;;;;;;;;5064216;28;20285;-76
2022/05/05 13:00:49;;;;;;;6.33;4.80;;;;;;;;;;5069648;28;20198;-75
2022/05/05 13:03:37;;;;;;;7.93;4.40;;;;;;;;;;5073286;28;20768;-78
2022/05/05 13:06:08;;;;;;;6.20;4.67;;;;;;;;;;5065047;28;20264;-79
2022/05/05 13:08:49;;;;;;;7.40;4.20;;;;;;;;;;5069947;28;20735;-76
2022/05/05 13:11:17;;;;;;;6.43;3.93;;;;;;;;;;5069729;28;20202;-77
2022/05/05 13:13:46;;;;;;;5.20;3.93;;;;;;;;;;5065887;28;20262;-78
2022/05/05 13:16:14;;;;;;;6.83;4.53;;;;;;;;;;5060187;28;20261;-75
2022/05/05 13:18:42;;;;;;;5.57;3.63;;;;;;;;;;5067222;28;20195;-76
2022/05/05 13:21:11;;;;;;;6.37;3.63;;;;;;;;;;5068145;28;20249;-76
2022/05/05 13:23:39;;;;;;;5.60;2.87;;;;;;;;;;5066768;28;20237;-77
2022/05/05 13:26:08;;;;;;;8.87;3.67;;;;;;;;;;5068547;28;20223;-75
2022/05/05 13:28:36;;;;;;;4.17;2.70;;;;;;;;;;5070738;28;20206;-72
2022/05/05 13:31:04;;;;;;;6.03;3.33;;;;;;;;;;5071287;28;20712;-72
2022/05/05 13:33:32;;;;;;;3.83;3.10;;;;;;;;;;5069040;28;20203;-72
2022/05/05 13:36:00;;;;;;;7.93;3.10;;;;;;;;;;5065856;28;20210;-73
2022/05/05 13:38:30;;;;;;;4.57;3.37;;;;;;;;;;5064392;28;20666;-75
2022/05/05 13:41:17;;;;;;;5.47;2.87;;;;;;;;;;5069974;28;20262;-75
2022/05/05 13:43:44;;;;;;;2.83;2.20;;;;;;;;;;5063095;28;20229;-75
2022/05/05 13:46:13;;;;;;;3.87;2.57;;;;;;;;;;5070839;28;20230;-74
2022/05/05 13:48:41;;;;;;;4.77;3.37;;;;;;;;;;5073388;28;20855;-74
2022/05/05 13:51:09;;;;;;;7.53;2.80;;;;;;;;;;5068819;28;20241;-74
2022/05/05 13:53:38;;;;;;;3.83;3.50;;;;;;;;;;5068096;28;20229;-74
2022/05/05 13:56:06;;;;;;;6.40;3.47;;;;;;;;;;5062310;28;20682;-75
2022/05/05 13:58:35;;;;;;;3.33;3.03;;;;;;;;;;5065608;28;20447;-73
2022/05/05 14:01:03;;;;;;;4.83;2.87;;;;;;;;;;5065986;28;20631;-76
2022/05/05 14:03:31;;;;;;;5.07;2.67;;;;;;;;;;5067960;28;20246;-76
2022/05/05 14:05:59;;;;;;;2.33;2.13;;;;;;;;;;5070096;28;20230;-76
2022/05/05 14:13:59;;;;;;;2.57;1.90;;;;;;;;;;5065101;28;20589;-76
2022/05/05 14:16:28;;;;;;;2.90;1.83;;;;;;;;;;5066279;28;20242;-74
2022/05/05 14:18:56;;;;;;;2.27;2.17;;;;;;;;;;5064718;28;20203;-75
2022/05/05 14:21:24;;;;;;;3.00;1.93;;;;;;;;;;5062285;28;20206;-78
2022/05/05 14:23:52;;;;;;;2.50;2.30;;;;;;;;;;5069887;28;20224;-75
2022/05/05 14:26:21;;;;;;;2.37;2.20;;;;;;;;;;5070940;28;20256;-76
2022/05/05 14:28:49;;;;;;;2.90;2.57;;;;;;;;;;5064953;28;20677;-77
2022/05/05 14:31:18;;;;;;;1.90;1.80;;;;;;;;;;5072173;28;20199;-74
2022/05/05 14:33:46;;;;;;;5.27;2.00;;;;;;;;;;5069995;28;20233;-75
2022/05/05 14:36:16;;;;;;;2.90;1.67;;;;;;;;;;5066050;28;20219;-77
2022/05/05 14:38:44;;;;;;;2.63;2.17;;;;;;;;;;5069099;28;20244;-75
2022/05/05 14:41:12;;;;;;;2.27;2.07;;;;;;;;;;5060474;28;20206;-77
2022/05/05 14:43:41;;;;;;;1.80;1.70;;;;;;;;;;5062711;28;20615;-77
2022/05/05 14:46:10;;;;;;;4.57;2.00;;;;;;;;;;5058085;28;20283;-77
2022/05/05 14:48:38;;;;;;;2.83;1.90;;;;;;;;;;5065826;28;20727;-78
2022/05/05 14:51:07;;;;;;;2.27;2.00;;;;;;;;;;5070490;28;20264;-77
2022/05/05 14:53:35;;;;;;;1.70;1.60;;;;;;;;;;5063435;28;20285;-77
2022/05/05 14:56:04;;;;;;;2.70;2.00;;;;;;;;;;5063080;28;20245;-77
2022/05/05 14:58:32;;;;;;;2.67;2.00;;;;;;;;;;5063263;28;20300;-77
2022/05/05 15:01:01;;;;;;;2.00;1.70;;;;;;;;;;5064604;28;20237;-77
2022/05/05 15:03:30;;;;;;;3.00;1.60;;;;;;;;;;5061126;28;20227;-77
2022/05/05 15:05:58;;;;;;;3.07;1.60;;;;;;;;;;5071259;28;20222;-77
2022/05/05 15:08:26;;;;;;;3.20;2.33;;;;;;;;;;5060818;28;20203;-77
2022/05/05 15:10:54;;;;;;;4.10;2.47;;;;;;;;;;5059498;28;20226;-77
2022/05/05 15:13:23;;;;;;;3.17;2.23;;;;;;;;;;5064617;28;20206;-77
2022/05/05 15:15:55;;;;;;;2.77;1.63;;;;;;;;;;5061735;28;20215;-77
2022/05/05 15:18:24;;;;;;;3.70;2.33;;;;;;;;;;5070744;28;20671;-77
2022/05/05 15:20:53;;;;;;;3.23;1.97;;;;;;;;;;5063345;28;20563;-77
2022/05/05 15:23:22;;;;;;;2.90;2.40;;;;;;;;;;5074826;28;20271;-76
2022/05/05 15:25:50;;;;;;;2.83;2.53;;;;;;;;;;5069984;28;20254;-75
2022/05/05 15:28:18;;;;;;;3.33;2.57;;;;;;;;;;5067258;28;20199;-77
2022/05/05 15:30:46;;;;;;;4.83;2.30;;;;;;;;;;5063049;28;20207;-77
2022/05/05 15:33:14;;;;;;;2.53;1.80;;;;;;;;;;5064746;28;20259;-75
2022/05/05 15:35:44;;;;;;;2.47;1.93;;;;;;;;;;5068293;28;20253;-75
2022/05/05 15:38:12;;;;;;;1.97;1.60;;;;;;;;;;5068271;28;20721;-75
2022/05/05 15:40:40;;;;;;;2.30;1.93;;;;;;;;;;5066279;28;20203;-75
2022/05/05 15:43:08;;;;;;;4.57;2.43;;;;;;;;;;5069414;28;20255;-75
2022/05/05 15:45:36;;;;;;;2.33;2.10;;;;;;;;;;5062718;28;20332;-75
2022/05/05 15:48:06;;;;;;;2.63;1.53;;;;;;;;;;5069787;28;20203;-75
2022/05/05 15:50:34;;;;;;;2.57;2.37;;;;;;;;;;5064956;28;20286;-77
2022/05/05 15:53:04;;;;;;;4.00;2.00;;;;;;;;;;5063575;28;20282;-75
2022/05/05 15:55:32;;;;;;;2.73;2.30;;;;;;;;;;5066874;28;20222;-75
2022/05/05 15:58:00;;;;;;;3.07;1.63;;;;;;;;;;5072493;28;20233;-75